Terminal Aerodrome Forecast
Issued by NWS

Home | Current Version | Previous Version | Text Only | Print | Product List | Glossary Off
Versions: 1 2 3 4 5 6 7 8 9 10 11 12 13 14 15 16 17 18 19

000
FTUS43 KBIS 181500 AAA
TAFDIK
TAF AMD
KDIK 181554Z 1816/1912 20008KT P6SM BKN070
     FM182100 26013KT P6SM VCSH BKN080
     FM182300 35024G34KT 5SM -SHRA BKN060
     FM190400 34020G29KT P6SM BKN070=

USA.gov is the U.S. government's official web portal to all federal, state and local government web resources and services.